SAVC/CRD METAR and TAF weather

Enter ICAO airport designator
Station Type Date Time Source
SAVC METAR 2021/09/24 02:00 UTC NOAA

SAVC 240200Z 31014KT CAVOK 18/01 Q1013


Station Type Date Time Source
SAVC Decoded METAR 2021/09/24 02:00 UTC NOAA

Comodoro Rivadavia Aerodrome, Argentina (SAVC) 45-47S 067-30W 46M
Sep 23, 2021 - 10:00 PM EDT / 2021.09.24 0200 UTC
Wind: from the NW (310 degrees) at 16 MPH (14 KT):0
Visibility: greater than 7 mile(s):0
Temperature: 64 F (18 C)
Dew Point: 33 F (1 C)
Relative Humidity: 31%
Pressure (altimeter): 29.91 in. Hg (1013 hPa)
ob: SAVC 240200Z 31014KT CAVOK 18/01 Q1013
cycle: 2

Station Type Date Time Source
SAVC TAF 2021/09/24 00:00 UTC NOAA

TAF SAVC 232300Z 2400/2424 32015G25KT CAVOK TX27/2419Z TN13/2411Z
BECMG 2402/0204 32020G30KT
BECMG 2420/2422 32012KT

Example: see airport list